sensor_id;sensor_type;location;lat;lon;timestamp;pressure;altitude;pressure_sealevel;temperature;humidity
57050;BME280;42935;50.966;16.992;2023-03-14T00:01:15;99735.89;;;9.68;73.92
57050;BME280;42935;50.966;16.992;2023-03-14T00:04:30;99703.18;;;9.64;73.38
57050;BME280;42935;50.966;16.992;2023-03-14T00:07:47;99704.17;;;9.41;75.25
57050;BME280;42935;50.966;16.992;2023-03-14T00:11:12;99729.23;;;9.57;74.42
57050;BME280;42935;50.966;16.992;2023-03-14T00:14:32;99738.35;;;9.47;75.80
57050;BME280;42935;50.966;16.992;2023-03-14T00:17:47;99741.11;;;9.34;78.34
57050;BME280;42935;50.966;16.992;2023-03-14T00:21:03;99727.89;;;9.34;78.01
57050;BME280;42935;50.966;16.992;2023-03-14T00:24:20;99722.73;;;9.27;77.62
57050;BME280;42935;50.966;16.992;2023-03-14T00:27:38;99724.08;;;9.35;78.61
57050;BME280;42935;50.966;16.992;2023-03-14T00:30:55;99724.70;;;9.23;79.53
57050;BME280;42935;50.966;16.992;2023-03-14T00:34:15;99731.91;;;9.17;80.71
57050;BME280;42935;50.966;16.992;2023-03-14T00:37:30;99742.41;;;9.18;80.71
57050;BME280;42935;50.966;16.992;2023-03-14T00:40:51;99727.54;;;8.95;80.85
57050;BME280;42935;50.966;16.992;2023-03-14T00:44:11;99729.75;;;9.15;81.09
57050;BME280;42935;50.966;16.992;2023-03-14T00:47:32;99736.13;;;9.14;82.97
57050;BME280;42935;50.966;16.992;2023-03-14T00:50:52;99717.34;;;8.94;84.73
57050;BME280;42935;50.966;16.992;2023-03-14T00:54:07;99743.85;;;8.76;84.02
57050;BME280;42935;50.966;16.992;2023-03-14T00:57:29;99782.09;;;8.77;83.55
57050;BME280;42935;50.966;16.992;2023-03-14T01:00:49;99783.38;;;9.32;77.73
57050;BME280;42935;50.966;16.992;2023-03-14T01:04:12;99788.45;;;9.52;75.76
57050;BME280;42935;50.966;16.992;2023-03-14T01:07:29;99796.76;;;9.59;75.62
57050;BME280;42935;50.966;16.992;2023-03-14T01:10:45;99790.18;;;9.28;80.22
57050;BME280;42935;50.966;16.992;2023-03-14T01:14:04;99790.20;;;9.29;79.37
57050;BME280;42935;50.966;16.992;2023-03-14T01:17:19;99781.16;;;9.19;80.19
57050;BME280;42935;50.966;16.992;2023-03-14T01:20:37;99764.97;;;9.20;80.10
57050;BME280;42935;50.966;16.992;2023-03-14T01:23:56;99787.77;;;9.30;81.30
57050;BME280;42935;50.966;16.992;2023-03-14T01:27:14;99766.54;;;9.21;83.18
57050;BME280;42935;50.966;16.992;2023-03-14T01:30:31;99739.88;;;9.07;84.39
57050;BME280;42935;50.966;16.992;2023-03-14T01:33:50;99715.18;;;9.07;85.64
57050;BME280;42935;50.966;16.992;2023-03-14T01:37:10;99655.45;;;8.98;86.44
57050;BME280;42935;50.966;16.992;2023-03-14T01:40:30;99691.49;;;9.21;87.33
57050;BME280;42935;50.966;16.992;2023-03-14T01:43:45;99733.23;;;8.90;89.39
57050;BME280;42935;50.966;16.992;2023-03-14T01:47:00;99726.94;;;8.99;91.29
57050;BME280;42935;50.966;16.992;2023-03-14T01:50:17;99707.40;;;8.95;93.45
57050;BME280;42935;50.966;16.992;2023-03-14T01:53:40;99693.93;;;8.73;99.42
57050;BME280;42935;50.966;16.992;2023-03-14T02:00:24;99688.12;;;8.17;100.00
57050;BME280;42935;50.966;16.992;2023-03-14T02:03:50;99653.02;;;8.23;100.00
57050;BME280;42935;50.966;16.992;2023-03-14T02:10:45;99639.31;;;7.90;100.00
57050;BME280;42935;50.966;16.992;2023-03-14T02:14:06;99648.04;;;8.02;100.00
57050;BME280;42935;50.966;16.992;2023-03-14T02:17:24;99667.22;;;7.91;100.00
57050;BME280;42935;50.966;16.992;2023-03-14T02:24:25;99636.64;;;8.07;100.00
57050;BME280;42935;50.966;16.992;2023-03-14T02:27:45;99610.05;;;8.00;100.00
57050;BME280;42935;50.966;16.992;2023-03-14T02:31:10;99572.48;;;7.91;98.95
57050;BME280;42935;50.966;16.992;2023-03-14T02:34:31;99556.43;;;7.92;97.01
57050;BME280;42935;50.966;16.992;2023-03-14T02:41:23;99553.34;;;8.01;96.75
57050;BME280;42935;50.966;16.992;2023-03-14T02:48:18;99555.94;;;8.00;93.83
57050;BME280;42935;50.966;16.992;2023-03-14T02:51:37;99566.92;;;8.16;94.88
57050;BME280;42935;50.966;16.992;2023-03-14T02:54:57;99530.12;;;8.07;95.11
57050;BME280;42935;50.966;16.992;2023-03-14T02:58:18;99528.84;;;8.33;92.33
57050;BME280;42935;50.966;16.992;2023-03-14T03:01:38;99525.09;;;8.59;91.13
57050;BME280;42935;50.966;16.992;2023-03-14T03:04:58;99491.67;;;8.45;92.17
57050;BME280;42935;50.966;16.992;2023-03-14T03:08:22;99494.64;;;8.57;90.29
57050;BME280;42935;50.966;16.992;2023-03-14T03:12:13;99507.95;;;8.57;90.04
57050;BME280;42935;50.966;16.992;2023-03-14T03:15:36;99525.03;;;8.67;88.27
57050;BME280;42935;50.966;16.992;2023-03-14T03:18:54;99523.74;;;8.76;88.71
57050;BME280;42935;50.966;16.992;2023-03-14T03:22:15;99487.37;;;8.47;91.26
57050;BME280;42935;50.966;16.992;2023-03-14T03:25:32;99515.14;;;8.59;90.89
57050;BME280;42935;50.966;16.992;2023-03-14T03:28:56;99504.41;;;8.53;91.62
57050;BME280;42935;50.966;16.992;2023-03-14T03:32:16;99467.11;;;8.75;86.51
57050;BME280;42935;50.966;16.992;2023-03-14T03:35:46;99447.66;;;8.71;87.16
57050;BME280;42935;50.966;16.992;2023-03-14T03:39:06;99452.77;;;8.67;88.55
57050;BME280;42935;50.966;16.992;2023-03-14T03:42:25;99425.01;;;8.60;89.70
57050;BME280;42935;50.966;16.992;2023-03-14T03:45:43;99434.65;;;8.85;87.02
57050;BME280;42935;50.966;16.992;2023-03-14T03:49:01;99431.97;;;8.69;87.88
57050;BME280;42935;50.966;16.992;2023-03-14T03:52:20;99447.32;;;8.80;89.05
57050;BME280;42935;50.966;16.992;2023-03-14T03:55:41;99446.30;;;8.67;90.51
57050;BME280;42935;50.966;16.992;2023-03-14T03:59:01;99438.30;;;8.74;91.73
57050;BME280;42935;50.966;16.992;2023-03-14T04:02:24;99423.92;;;8.90;87.47
57050;BME280;42935;50.966;16.992;2023-03-14T04:05:44;99426.88;;;8.97;87.45
57050;BME280;42935;50.966;16.992;2023-03-14T04:09:03;99423.38;;;9.32;83.08
57050;BME280;42935;50.966;16.992;2023-03-14T04:12:18;99407.52;;;9.21;84.05
57050;BME280;42935;50.966;16.992;2023-03-14T04:15:40;99412.89;;;9.13;84.42
57050;BME280;42935;50.966;16.992;2023-03-14T04:18:57;99415.87;;;9.01;86.99
57050;BME280;42935;50.966;16.992;2023-03-14T04:22:14;99405.63;;;9.28;82.74
57050;BME280;42935;50.966;16.992;2023-03-14T04:25:35;99388.89;;;9.09;84.94
57050;BME280;42935;50.966;16.992;2023-03-14T04:28:52;99377.63;;;8.77;91.35
57050;BME280;42935;50.966;16.992;2023-03-14T04:32:09;99366.94;;;8.66;93.26
57050;BME280;42935;50.966;16.992;2023-03-14T04:35:25;99347.35;;;8.65;90.71
57050;BME280;42935;50.966;16.992;2023-03-14T04:38:42;99356.81;;;8.84;88.75
57050;BME280;42935;50.966;16.992;2023-03-14T04:41:57;99343.05;;;8.80;86.99
57050;BME280;42935;50.966;16.992;2023-03-14T04:45:17;99351.72;;;8.81;88.13
57050;BME280;42935;50.966;16.992;2023-03-14T04:48:37;99357.70;;;8.84;87.26
57050;BME280;42935;50.966;16.992;2023-03-14T04:51:57;99353.20;;;8.85;85.57
57050;BME280;42935;50.966;16.992;2023-03-14T04:55:19;99351.51;;;8.82;84.87
57050;BME280;42935;50.966;16.992;2023-03-14T04:58:35;99389.99;;;8.97;85.79
57050;BME280;42935;50.966;16.992;2023-03-14T05:01:50;99400.24;;;8.77;87.57
57050;BME280;42935;50.966;16.992;2023-03-14T05:05:10;99415.16;;;8.83;86.06
57050;BME280;42935;50.966;16.992;2023-03-14T05:08:38;99423.43;;;8.72;88.14
57050;BME280;42935;50.966;16.992;2023-03-14T05:11:57;99415.69;;;8.59;89.23
57050;BME280;42935;50.966;16.992;2023-03-14T05:15:16;99412.29;;;8.63;89.39
57050;BME280;42935;50.966;16.992;2023-03-14T05:18:36;99394.91;;;8.65;88.12
57050;BME280;42935;50.966;16.992;2023-03-14T05:21:52;99365.70;;;8.57;90.51
57050;BME280;42935;50.966;16.992;2023-03-14T05:25:12;99349.31;;;8.53;91.23
57050;BME280;42935;50.966;16.992;2023-03-14T05:28:29;99349.48;;;8.65;90.35
57050;BME280;42935;50.966;16.992;2023-03-14T05:31:49;99355.42;;;8.52;92.20
57050;BME280;42935;50.966;16.992;2023-03-14T05:35:11;99374.30;;;8.59;91.01
57050;BME280;42935;50.966;16.992;2023-03-14T05:38:28;99371.29;;;8.55;91.61
57050;BME280;42935;50.966;16.992;2023-03-14T05:41:44;99378.47;;;8.59;92.26
57050;BME280;42935;50.966;16.992;2023-03-14T05:45:02;99381.98;;;8.42;97.90
57050;BME280;42935;50.966;16.992;2023-03-14T05:48:22;99401.20;;;8.47;99.91
57050;BME280;42935;50.966;16.992;2023-03-14T05:51:42;99380.87;;;8.36;99.55
57050;BME280;42935;50.966;16.992;2023-03-14T05:55:02;99375.42;;;8.32;97.34
57050;BME280;42935;50.966;16.992;2023-03-14T05:58:20;99401.42;;;8.48;94.50
57050;BME280;42935;50.966;16.992;2023-03-14T06:01:37;99399.24;;;8.39;94.94
57050;BME280;42935;50.966;16.992;2023-03-14T06:04:56;99395.18;;;8.71;90.25
57050;BME280;42935;50.966;16.992;2023-03-14T06:08:14;99386.23;;;8.77;90.79
57050;BME280;42935;50.966;16.992;2023-03-14T06:11:31;99379.11;;;8.78;90.44
57050;BME280;42935;50.966;16.992;2023-03-14T06:14:51;99374.73;;;9.00;86.26
57050;BME280;42935;50.966;16.992;2023-03-14T06:18:11;99391.93;;;9.05;86.91
57050;BME280;42935;50.966;16.992;2023-03-14T06:21:30;99403.11;;;9.01;87.97
57050;BME280;42935;50.966;16.992;2023-03-14T06:24:47;99415.24;;;9.11;86.72
57050;BME280;42935;50.966;16.992;2023-03-14T06:28:02;99416.80;;;9.05;85.95
57050;BME280;42935;50.966;16.992;2023-03-14T06:31:23;99420.13;;;9.12;85.98
57050;BME280;42935;50.966;16.992;2023-03-14T06:34:38;99387.98;;;9.02;85.27
57050;BME280;42935;50.966;16.992;2023-03-14T06:37:55;99392.42;;;9.07;85.69
57050;BME280;42935;50.966;16.992;2023-03-14T06:41:12;99410.95;;;9.12;85.48
57050;BME280;42935;50.966;16.992;2023-03-14T06:44:31;99425.27;;;8.95;90.82
57050;BME280;42935;50.966;16.992;2023-03-14T06:47:48;99432.88;;;8.83;95.03
57050;BME280;42935;50.966;16.992;2023-03-14T06:51:08;99440.46;;;8.79;94.04
57050;BME280;42935;50.966;16.992;2023-03-14T06:54:25;99431.30;;;8.90;91.11
57050;BME280;42935;50.966;16.992;2023-03-14T06:57:44;99426.61;;;8.84;90.44
57050;BME280;42935;50.966;16.992;2023-03-14T07:04:39;99426.06;;;8.74;96.10
57050;BME280;42935;50.966;16.992;2023-03-14T07:07:57;99440.66;;;8.71;96.18
57050;BME280;42935;50.966;16.992;2023-03-14T07:11:17;99443.81;;;8.66;95.67
57050;BME280;42935;50.966;16.992;2023-03-14T07:14:46;99465.38;;;8.76;93.20
57050;BME280;42935;50.966;16.992;2023-03-14T07:18:04;99473.09;;;8.67;95.91
57050;BME280;42935;50.966;16.992;2023-03-14T07:21:21;99480.09;;;8.63;100.00
57050;BME280;42935;50.966;16.992;2023-03-14T07:24:36;99466.94;;;8.41;100.00
57050;BME280;42935;50.966;16.992;2023-03-14T07:27:51;99458.30;;;8.59;100.00
57050;BME280;42935;50.966;16.992;2023-03-14T07:31:08;99446.20;;;8.71;98.49
57050;BME280;42935;50.966;16.992;2023-03-14T07:34:23;99435.46;;;8.81;97.07
57050;BME280;42935;50.966;16.992;2023-03-14T07:37:43;99429.28;;;8.89;97.00
57050;BME280;42935;50.966;16.992;2023-03-14T07:41:28;99434.79;;;8.56;97.33
57050;BME280;42935;50.966;16.992;2023-03-14T07:44:45;99443.21;;;8.28;100.00
57050;BME280;42935;50.966;16.992;2023-03-14T07:48:02;99457.46;;;8.33;100.00
57050;BME280;42935;50.966;16.992;2023-03-14T07:51:19;99457.61;;;8.30;100.00
57050;BME280;42935;50.966;16.992;2023-03-14T07:54:39;99454.93;;;8.20;100.00
57050;BME280;42935;50.966;16.992;2023-03-14T07:57:59;99452.86;;;8.10;100.00
57050;BME280;42935;50.966;16.992;2023-03-14T08:01:18;99443.34;;;8.19;100.00
57050;BME280;42935;50.966;16.992;2023-03-14T08:04:40;99430.56;;;8.20;100.00
57050;BME280;42935;50.966;16.992;2023-03-14T08:07:57;99442.90;;;8.36;100.00
57050;BME280;42935;50.966;16.992;2023-03-14T08:11:17;99406.73;;;8.22;100.00
57050;BME280;42935;50.966;16.992;2023-03-14T08:14:36;99430.50;;;8.23;100.00
57050;BME280;42935;50.966;16.992;2023-03-14T08:18:24;99433.84;;;8.34;100.00
57050;BME280;42935;50.966;16.992;2023-03-14T08:21:41;99432.34;;;8.48;95.95
57050;BME280;42935;50.966;16.992;2023-03-14T08:24:57;99429.02;;;8.52;96.46
57050;BME280;42935;50.966;16.992;2023-03-14T08:28:13;99435.54;;;8.47;95.28
57050;BME280;42935;50.966;16.992;2023-03-14T08:31:32;99462.95;;;8.42;97.97
57050;BME280;42935;50.966;16.992;2023-03-14T08:34:50;99476.09;;;8.24;100.00
57050;BME280;42935;50.966;16.992;2023-03-14T08:38:07;99485.33;;;8.33;99.49
57050;BME280;42935;50.966;16.992;2023-03-14T08:41:24;99502.89;;;8.23;100.00
57050;BME280;42935;50.966;16.992;2023-03-14T08:44:41;99520.94;;;8.33;99.71
57050;BME280;42935;50.966;16.992;2023-03-14T08:48:00;99517.47;;;8.41;99.99
57050;BME280;42935;50.966;16.992;2023-03-14T08:51:17;99517.80;;;8.45;99.42
57050;BME280;42935;50.966;16.992;2023-03-14T08:54:34;99511.83;;;8.54;99.89
57050;BME280;42935;50.966;16.992;2023-03-14T08:57:49;99494.18;;;8.43;100.00
57050;BME280;42935;50.966;16.992;2023-03-14T09:01:08;99523.13;;;8.47;100.00
57050;BME280;42935;50.966;16.992;2023-03-14T09:04:24;99511.48;;;8.33;100.00
57050;BME280;42935;50.966;16.992;2023-03-14T09:07:41;99489.48;;;8.23;100.00
57050;BME280;42935;50.966;16.992;2023-03-14T09:11:01;99513.28;;;8.46;100.00
57050;BME280;42935;50.966;16.992;2023-03-14T09:14:18;99501.88;;;8.48;100.00
57050;BME280;42935;50.966;16.992;2023-03-14T09:17:43;99477.23;;;8.43;100.00
57050;BME280;42935;50.966;16.992;2023-03-14T09:21:00;99485.02;;;8.56;100.00
57050;BME280;42935;50.966;16.992;2023-03-14T09:24:17;99505.23;;;8.66;100.00
57050;BME280;42935;50.966;16.992;2023-03-14T09:27:47;99511.40;;;8.68;100.00
57050;BME280;42935;50.966;16.992;2023-03-14T09:31:08;99528.00;;;8.76;100.00
57050;BME280;42935;50.966;16.992;2023-03-14T09:34:26;99515.99;;;8.64;100.00
57050;BME280;42935;50.966;16.992;2023-03-14T09:37:49;99531.59;;;8.81;100.00
57050;BME280;42935;50.966;16.992;2023-03-14T09:41:25;99537.44;;;8.88;100.00
57050;BME280;42935;50.966;16.992;2023-03-14T09:45:03;99546.50;;;8.95;100.00
57050;BME280;42935;50.966;16.992;2023-03-14T09:48:32;99540.77;;;8.92;100.00
57050;BME280;42935;50.966;16.992;2023-03-14T09:51:40;99535.19;;;8.90;100.00
57050;BME280;42935;50.966;16.992;2023-03-14T09:55:16;99553.15;;;8.91;100.00
57050;BME280;42935;50.966;16.992;2023-03-14T09:58:36;99537.27;;;8.68;100.00
57050;BME280;42935;50.966;16.992;2023-03-14T10:01:53;99561.82;;;8.71;100.00
57050;BME280;42935;50.966;16.992;2023-03-14T10:05:16;99559.73;;;8.72;100.00
57050;BME280;42935;50.966;16.992;2023-03-14T10:08:31;99552.14;;;8.73;100.00
57050;BME280;42935;50.966;16.992;2023-03-14T10:11:56;99544.56;;;8.71;100.00
57050;BME280;42935;50.966;16.992;2023-03-14T10:15:24;99546.80;;;8.93;100.00
57050;BME280;42935;50.966;16.992;2023-03-14T10:18:45;99555.77;;;9.11;100.00
57050;BME280;42935;50.966;16.992;2023-03-14T10:22:13;99550.59;;;9.17;100.00
57050;BME280;42935;50.966;16.992;2023-03-14T10:25:32;99527.84;;;9.27;100.00
57050;BME280;42935;50.966;16.992;2023-03-14T10:28:51;99524.88;;;9.38;100.00
57050;BME280;42935;50.966;16.992;2023-03-14T10:32:18;99520.47;;;9.49;100.00
57050;BME280;42935;50.966;16.992;2023-03-14T10:35:35;99523.91;;;9.69;100.00
57050;BME280;42935;50.966;16.992;2023-03-14T10:42:27;99521.34;;;9.92;100.00
57050;BME280;42935;50.966;16.992;2023-03-14T10:45:54;99518.17;;;9.99;100.00
57050;BME280;42935;50.966;16.992;2023-03-14T10:49:27;99513.28;;;10.12;100.00
57050;BME280;42935;50.966;16.992;2023-03-14T10:52:48;99523.53;;;10.18;100.00
57050;BME280;42935;50.966;16.992;2023-03-14T10:56:14;99523.39;;;10.26;100.00
57050;BME280;42935;50.966;16.992;2023-03-14T10:59:37;99459.96;;;9.96;100.00
57050;BME280;42935;50.966;16.992;2023-03-14T11:03:10;99521.90;;;10.34;100.00
57050;BME280;42935;50.966;16.992;2023-03-14T11:13:35;99503.05;;;10.68;100.00
57050;BME280;42935;50.966;16.992;2023-03-14T11:17:02;99507.02;;;11.07;98.07
57050;BME280;42935;50.966;16.992;2023-03-14T11:20:38;99490.51;;;11.34;100.00
57050;BME280;42935;50.966;16.992;2023-03-14T11:27:41;99490.69;;;11.50;96.57
57050;BME280;42935;50.966;16.992;2023-03-14T11:31:12;99495.20;;;11.37;98.56
57050;BME280;42935;50.966;16.992;2023-03-14T11:41:36;99483.96;;;11.08;100.00
57050;BME280;42935;50.966;16.992;2023-03-14T11:45:00;99475.38;;;11.09;100.00
57050;BME280;42935;50.966;16.992;2023-03-14T11:48:35;99488.12;;;11.00;100.00
57050;BME280;42935;50.966;16.992;2023-03-14T11:51:56;99476.93;;;10.86;100.00
57050;BME280;42935;50.966;16.992;2023-03-14T11:55:24;99470.80;;;10.83;100.00
57050;BME280;42935;50.966;16.992;2023-03-14T11:58:54;99472.59;;;10.74;100.00
57050;BME280;42935;50.966;16.992;2023-03-14T12:02:31;99470.59;;;10.76;100.00
57050;BME280;42935;50.966;16.992;2023-03-14T12:09:20;99472.03;;;10.63;100.00
57050;BME280;42935;50.966;16.992;2023-03-14T12:12:38;99452.73;;;10.48;100.00
57050;BME280;42935;50.966;16.992;2023-03-14T12:15:57;99461.84;;;10.60;100.00
57050;BME280;42935;50.966;16.992;2023-03-14T12:19:28;99439.25;;;10.60;100.00
57050;BME280;42935;50.966;16.992;2023-03-14T12:22:55;99456.61;;;10.70;100.00
57050;BME280;42935;50.966;16.992;2023-03-14T12:29:58;99455.33;;;10.41;100.00
57050;BME280;42935;50.966;16.992;2023-03-14T12:33:29;99444.36;;;10.53;100.00
57050;BME280;42935;50.966;16.992;2023-03-14T12:37:33;99437.03;;;10.46;100.00
57050;BME280;42935;50.966;16.992;2023-03-14T12:51:19;99445.77;;;10.62;100.00
57050;BME280;42935;50.966;16.992;2023-03-14T12:54:53;99432.28;;;10.48;100.00
57050;BME280;42935;50.966;16.992;2023-03-14T12:58:22;99419.57;;;10.40;100.00
57050;BME280;42935;50.966;16.992;2023-03-14T13:01:52;99434.73;;;10.55;100.00
57050;BME280;42935;50.966;16.992;2023-03-14T13:05:18;99416.15;;;10.43;100.00
57050;BME280;42935;50.966;16.992;2023-03-14T13:08:44;99424.61;;;10.45;100.00
57050;BME280;42935;50.966;16.992;2023-03-14T13:12:14;99427.24;;;10.50;100.00
57050;BME280;42935;50.966;16.992;2023-03-14T13:16:09;99428.04;;;10.54;100.00
57050;BME280;42935;50.966;16.992;2023-03-14T13:19:30;99424.98;;;10.50;100.00
57050;BME280;42935;50.966;16.992;2023-03-14T13:22:51;99431.36;;;10.52;100.00
57050;BME280;42935;50.966;16.992;2023-03-14T13:26:13;99439.17;;;10.60;100.00
57050;BME280;42935;50.966;16.992;2023-03-14T13:29:35;99423.90;;;10.66;100.00
57050;BME280;42935;50.966;16.992;2023-03-14T13:32:55;99425.30;;;10.74;100.00
57050;BME280;42935;50.966;16.992;2023-03-14T13:36:11;99406.71;;;10.61;100.00
57050;BME280;42935;50.966;16.992;2023-03-14T13:39:31;99414.27;;;10.64;100.00
57050;BME280;42935;50.966;16.992;2023-03-14T13:46:23;99419.59;;;10.59;100.00
57050;BME280;42935;50.966;16.992;2023-03-14T13:49:39;99426.19;;;10.55;100.00
57050;BME280;42935;50.966;16.992;2023-03-14T13:52:57;99417.26;;;10.57;100.00
57050;BME280;42935;50.966;16.992;2023-03-14T13:56:17;99427.26;;;10.57;100.00
57050;BME280;42935;50.966;16.992;2023-03-14T13:59:36;99422.18;;;10.61;100.00
57050;BME280;42935;50.966;16.992;2023-03-14T14:02:57;99421.20;;;10.68;100.00
57050;BME280;42935;50.966;16.992;2023-03-14T14:06:30;99422.90;;;10.65;100.00
57050;BME280;42935;50.966;16.992;2023-03-14T14:09:51;99420.46;;;10.55;100.00
57050;BME280;42935;50.966;16.992;2023-03-14T14:13:15;99415.64;;;10.68;100.00
57050;BME280;42935;50.966;16.992;2023-03-14T14:16:43;99400.55;;;10.75;100.00
57050;BME280;42935;50.966;16.992;2023-03-14T14:20:07;99426.59;;;10.88;100.00
57050;BME280;42935;50.966;16.992;2023-03-14T14:23:28;99417.93;;;11.00;100.00
57050;BME280;42935;50.966;16.992;2023-03-14T14:26:54;99413.70;;;10.93;100.00
57050;BME280;42935;50.966;16.992;2023-03-14T14:33:54;99404.33;;;10.84;100.00
57050;BME280;42935;50.966;16.992;2023-03-14T14:37:26;99397.61;;;10.76;100.00
57050;BME280;42935;50.966;16.992;2023-03-14T14:40:48;99403.49;;;10.86;100.00
57050;BME280;42935;50.966;16.992;2023-03-14T14:44:05;99378.98;;;10.76;100.00
57050;BME280;42935;50.966;16.992;2023-03-14T14:47:24;99409.79;;;10.98;100.00
57050;BME280;42935;50.966;16.992;2023-03-14T14:54:20;99401.41;;;10.87;100.00
57050;BME280;42935;50.966;16.992;2023-03-14T15:01:19;99409.14;;;10.84;100.00
57050;BME280;42935;50.966;16.992;2023-03-14T15:04:35;99400.33;;;10.98;100.00
57050;BME280;42935;50.966;16.992;2023-03-14T15:07:54;99398.70;;;11.06;100.00
57050;BME280;42935;50.966;16.992;2023-03-14T15:11:21;99387.02;;;11.25;100.00
57050;BME280;42935;50.966;16.992;2023-03-14T15:14:37;99377.98;;;11.33;100.00
57050;BME280;42935;50.966;16.992;2023-03-14T15:17:54;99387.48;;;11.62;100.00
57050;BME280;42935;50.966;16.992;2023-03-14T15:21:13;99382.44;;;11.74;100.00
57050;BME280;42935;50.966;16.992;2023-03-14T15:24:34;99371.55;;;11.83;100.00
57050;BME280;42935;50.966;16.992;2023-03-14T15:27:54;99350.30;;;12.49;93.61
57050;BME280;42935;50.966;16.992;2023-03-14T15:31:12;99363.73;;;13.07;88.27
57050;BME280;42935;50.966;16.992;2023-03-14T15:34:31;99364.03;;;12.80;85.41
57050;BME280;42935;50.966;16.992;2023-03-14T15:37:48;99381.07;;;12.24;87.79
57050;BME280;42935;50.966;16.992;2023-03-14T15:41:05;99384.39;;;11.94;91.55
57050;BME280;42935;50.966;16.992;2023-03-14T15:44:21;99374.54;;;11.79;94.56
57050;BME280;42935;50.966;16.992;2023-03-14T15:47:38;99384.29;;;11.67;93.61
57050;BME280;42935;50.966;16.992;2023-03-14T15:50:54;99382.27;;;11.56;95.41
57050;BME280;42935;50.966;16.992;2023-03-14T15:54:15;99385.45;;;11.54;95.60
57050;BME280;42935;50.966;16.992;2023-03-14T15:57:31;99398.56;;;11.59;97.41
57050;BME280;42935;50.966;16.992;2023-03-14T16:00:49;99389.79;;;11.69;95.61
57050;BME280;42935;50.966;16.992;2023-03-14T16:04:07;99389.20;;;12.09;94.71
57050;BME280;42935;50.966;16.992;2023-03-14T16:07:22;99393.03;;;12.60;85.32
57050;BME280;42935;50.966;16.992;2023-03-14T16:10:40;99390.41;;;12.20;86.16
57050;BME280;42935;50.966;16.992;2023-03-14T16:13:56;99390.41;;;12.09;88.86
57050;BME280;42935;50.966;16.992;2023-03-14T16:17:16;99369.58;;;11.79;87.16
57050;BME280;42935;50.966;16.992;2023-03-14T16:20:36;99382.35;;;11.65;88.74
57050;BME280;42935;50.966;16.992;2023-03-14T16:23:56;99393.76;;;11.47;89.72
57050;BME280;42935;50.966;16.992;2023-03-14T16:27:14;99385.21;;;11.20;91.74
57050;BME280;42935;50.966;16.992;2023-03-14T16:30:34;99395.27;;;11.02;95.01
57050;BME280;42935;50.966;16.992;2023-03-14T16:33:50;99397.67;;;10.82;97.14
57050;BME280;42935;50.966;16.992;2023-03-14T16:37:07;99392.62;;;10.60;97.72
57050;BME280;42935;50.966;16.992;2023-03-14T16:40:27;99399.82;;;10.50;97.99
57050;BME280;42935;50.966;16.992;2023-03-14T16:43:47;99392.38;;;10.30;99.09
57050;BME280;42935;50.966;16.992;2023-03-14T16:47:16;99387.32;;;10.18;100.00
57050;BME280;42935;50.966;16.992;2023-03-14T16:50:34;99389.50;;;9.93;100.00
57050;BME280;42935;50.966;16.992;2023-03-14T16:53:54;99383.17;;;9.73;100.00
57050;BME280;42935;50.966;16.992;2023-03-14T16:57:16;99386.61;;;9.51;100.00
57050;BME280;42935;50.966;16.992;2023-03-14T17:00:34;99407.96;;;9.20;100.00
57050;BME280;42935;50.966;16.992;2023-03-14T17:03:58;99374.77;;;8.85;100.00
57050;BME280;42935;50.966;16.992;2023-03-14T17:07:18;99415.14;;;9.08;100.00
57050;BME280;42935;50.966;16.992;2023-03-14T17:10:39;99425.20;;;8.98;100.00
57050;BME280;42935;50.966;16.992;2023-03-14T17:14:00;99432.20;;;9.09;100.00
57050;BME280;42935;50.966;16.992;2023-03-14T17:17:21;99424.13;;;9.09;100.00
57050;BME280;42935;50.966;16.992;2023-03-14T17:20:41;99441.61;;;9.20;100.00
57050;BME280;42935;50.966;16.992;2023-03-14T17:24:02;99430.35;;;8.98;100.00
57050;BME280;42935;50.966;16.992;2023-03-14T17:27:24;99455.20;;;9.47;100.00
57050;BME280;42935;50.966;16.992;2023-03-14T17:30:45;99459.62;;;9.83;99.89
57050;BME280;42935;50.966;16.992;2023-03-14T17:34:05;99463.92;;;9.55;100.00
57050;BME280;42935;50.966;16.992;2023-03-14T17:37:23;99467.12;;;9.48;100.00
57050;BME280;42935;50.966;16.992;2023-03-14T17:40:47;99474.70;;;9.41;100.00
57050;BME280;42935;50.966;16.992;2023-03-14T17:44:06;99460.42;;;9.10;100.00
57050;BME280;42935;50.966;16.992;2023-03-14T17:47:28;99455.49;;;8.90;100.00
57050;BME280;42935;50.966;16.992;2023-03-14T17:50:49;99461.48;;;8.64;100.00
57050;BME280;42935;50.966;16.992;2023-03-14T17:54:09;99468.13;;;8.50;100.00
57050;BME280;42935;50.966;16.992;2023-03-14T17:57:29;99475.18;;;8.51;100.00
57050;BME280;42935;50.966;16.992;2023-03-14T18:00:47;99490.73;;;8.53;100.00
57050;BME280;42935;50.966;16.992;2023-03-14T18:04:07;99495.15;;;8.45;100.00
57050;BME280;42935;50.966;16.992;2023-03-14T18:07:27;99479.61;;;8.27;100.00
57050;BME280;42935;50.966;16.992;2023-03-14T18:10:51;99495.01;;;8.35;100.00
57050;BME280;42935;50.966;16.992;2023-03-14T18:14:14;99508.15;;;8.51;100.00
57050;BME280;42935;50.966;16.992;2023-03-14T18:17:34;99501.21;;;8.50;100.00
57050;BME280;42935;50.966;16.992;2023-03-14T18:20:54;99508.03;;;8.49;100.00
57050;BME280;42935;50.966;16.992;2023-03-14T18:24:14;99517.31;;;8.38;100.00
57050;BME280;42935;50.966;16.992;2023-03-14T18:27:30;99501.29;;;8.17;100.00
57050;BME280;42935;50.966;16.992;2023-03-14T18:30:49;99517.23;;;8.27;100.00
57050;BME280;42935;50.966;16.992;2023-03-14T18:34:28;99507.70;;;8.22;100.00
57050;BME280;42935;50.966;16.992;2023-03-14T18:37:50;99481.20;;;8.00;100.00
57050;BME280;42935;50.966;16.992;2023-03-14T18:41:16;99491.36;;;8.05;100.00
57050;BME280;42935;50.966;16.992;2023-03-14T18:44:38;99490.26;;;8.27;100.00
57050;BME280;42935;50.966;16.992;2023-03-14T18:48:02;99496.42;;;8.17;100.00